Tomiei Maru — JD3429 — position and weather

sailwx.info

Track history (hours):
 
Tides and Currents Weather Stations Pressure Air Temp Water Temp Dewpoint Dewpoint Depression Visibility Wind Speed Wind Dir Waves Ship Positions

Tomiei Maru

Last reported at 2017-Oct-18 08:22 UTC. Time now 2017-Oct-18 18:43 UTC.
Position N 35°22' E 139°53'.

Length 75 m; draft 4.3 m.

Type: Cargo ship. MMSI: 431004012.

Date/timePositionNaut miles runAvg speedWind from/ knotsBaromVisibWave heightAir tempDewpointWater temp
2017-Oct-18 08:22N 35°22' E 139°53'2 5.8
2017-Oct-18 07:59N 35°23' E 139°51'612.1
2017-Oct-18 07:30N 35°25' E 139°44'510.1
2017-Oct-18 07:01N 35°29' E 139°39'0 0.0
2017-Oct-18 06:29N 35°29' E 139°39'0 0.0
2017-Oct-18 05:59N 35°29' E 139°39'0 0.0
2017-Oct-18 05:29N 35°29' E 139°39'0 0.0
2017-Oct-18 04:59N 35°29' E 139°39'0 0.0
2017-Oct-18 04:29N 35°29' E 139°39'0 0.0
2017-Oct-18 03:59N 35°29' E 139°39'0 0.0
2017-Oct-18 03:29N 35°29' E 139°39'0 0.0
2017-Oct-18 03:00N 35°29' E 139°39'4 8.4
2017-Oct-18 02:31N 35°27' E 139°44'712.9
2017-Oct-18 01:58N 35°30' E 139°51'  
2017-Oct-13 20:05N 35°32' E 139°54'111.2
2017-Oct-13 20:00N 35°31' E 139°53'510.9
2017-Oct-13 19:31N 35°27' E 139°49'611.1
2017-Oct-13 19:01N 35°22' E 139°46'510.4
2017-Oct-13 18:30N 35°17' E 139°45'510.2
2017-Oct-13 18:00N 35°12' E 139°47'611.1
2017-Oct-13 17:30N 35°07' E 139°43'711.7
2017-Oct-13 16:55N 35°03' E 139°37'512.6
2017-Oct-13 16:30N 34°60' E 139°32'228 9.3
2017-Oct-12 15:59N 34°06' E 135°02'611.5
2017-Oct-12 15:31N 34°12' E 135°03'1411.6
2017-Oct-12 14:16N 34°25' E 135°09'512.6
2017-Oct-12 13:55N 34°29' E 135°13'512.3
2017-Oct-12 13:30N 34°33' E 135°17'612.2
2017-Oct-12 13:00N 34°37' E 135°21'5 9.1
2017-Oct-12 12:31N 34°38' E 135°27'1 1.1
2017-Oct-12 12:00N 34°38' E 135°28'0 0.0
2017-Oct-12 11:10N 34°38' E 135°28'0 0.0
2017-Oct-12 09:04N 34°38' E 135°28'0 0.0
2017-Oct-12 04:44N 34°38' E 135°28'0 0.0
2017-Oct-12 03:00N 34°38' E 135°28'0 0.9
2017-Oct-12 02:30N 34°38' E 135°27'0 0.0
2017-Oct-11 23:36N 34°38' E 135°27'0 0.0
2017-Oct-11 17:34N 34°38' E 135°27'0 0.1
2017-Oct-11 17:30N 34°38' E 135°27'3 6.9
2017-Oct-11 17:00N 34°38' E 135°23'  
2017-Oct-09 09:41N 35°02' E 139°32'212.1
2017-Oct-09 09:30N 35°04' E 139°35'612.8
2017-Oct-09 09:00N 35°07' E 139°41'612.4
2017-Oct-09 08:30N 35°12' E 139°46'612.1
2017-Oct-09 07:59N 35°18' E 139°44'711.8
2017-Oct-09 07:26N 35°24' E 139°43'11 0.7
2017-Oct-08 15:58N 35°32' E 139°54'511.6
2017-Oct-08 15:30N 35°27' E 139°50'611.4
2017-Oct-08 15:00N 35°23' E 139°46'510.5
2017-Oct-08 14:30N 35°18' E 139°45'510.2
2017-Oct-08 14:00N 35°13' E 139°47'611.4
2017-Oct-08 13:30N 35°08' E 139°44'611.6
2017-Oct-08 13:00N 35°04' E 139°38'712.2
2017-Oct-08 12:28N 34°60' E 139°32'  
Track history (hours):
 
Tides and Currents Weather Stations Pressure Air Temp Water Temp Dewpoint Dewpoint Depression Visibility Wind Speed Wind Dir Waves Ship Positions

Tomiei Maru

Last reported at 2017-Oct-18 08:22 UTC. Time now 2017-Oct-18 18:43 UTC.
Position N 35°22' E 139°53'.

Length 75 m; draft 4.3 m.

Type: Cargo ship. MMSI: 431004012.

Date/timePositionNaut miles runAvg speedWind from/ knotsBaromVisibWave heightAir tempDewpointWater temp
2017-Oct-18 08:22N 35°22' E 139°53'2 5.8
2017-Oct-18 07:59N 35°23' E 139°51'612.1
2017-Oct-18 07:30N 35°25' E 139°44'510.1
2017-Oct-18 07:01N 35°29' E 139°39'0 0.0
2017-Oct-18 06:29N 35°29' E 139°39'0 0.0
2017-Oct-18 05:59N 35°29' E 139°39'0 0.0
2017-Oct-18 05:29N 35°29' E 139°39'0 0.0
2017-Oct-18 04:59N 35°29' E 139°39'0 0.0
2017-Oct-18 04:29N 35°29' E 139°39'0 0.0
2017-Oct-18 03:59N 35°29' E 139°39'0 0.0
2017-Oct-18 03:29N 35°29' E 139°39'0 0.0
2017-Oct-18 03:00N 35°29' E 139°39'4 8.4
2017-Oct-18 02:31N 35°27' E 139°44'712.9
2017-Oct-18 01:58N 35°30' E 139°51'  
2017-Oct-13 20:05N 35°32' E 139°54'111.2
2017-Oct-13 20:00N 35°31' E 139°53'510.9
2017-Oct-13 19:31N 35°27' E 139°49'611.1
2017-Oct-13 19:01N 35°22' E 139°46'510.4
2017-Oct-13 18:30N 35°17' E 139°45'510.2
2017-Oct-13 18:00N 35°12' E 139°47'611.1
2017-Oct-13 17:30N 35°07' E 139°43'711.7
2017-Oct-13 16:55N 35°03' E 139°37'512.6
2017-Oct-13 16:30N 34°60' E 139°32'228 9.3
2017-Oct-12 15:59N 34°06' E 135°02'611.5
2017-Oct-12 15:31N 34°12' E 135°03'1411.6
2017-Oct-12 14:16N 34°25' E 135°09'512.6
2017-Oct-12 13:55N 34°29' E 135°13'512.3
2017-Oct-12 13:30N 34°33' E 135°17'612.2
2017-Oct-12 13:00N 34°37' E 135°21'5 9.1
2017-Oct-12 12:31N 34°38' E 135°27'1 1.1
2017-Oct-12 12:00N 34°38' E 135°28'0 0.0
2017-Oct-12 11:10N 34°38' E 135°28'0 0.0
2017-Oct-12 09:04N 34°38' E 135°28'0 0.0
2017-Oct-12 04:44N 34°38' E 135°28'0 0.0
2017-Oct-12 03:00N 34°38' E 135°28'0 0.9
2017-Oct-12 02:30N 34°38' E 135°27'0 0.0
2017-Oct-11 23:36N 34°38' E 135°27'0 0.0
2017-Oct-11 17:34N 34°38' E 135°27'0 0.1
2017-Oct-11 17:30N 34°38' E 135°27'3 6.9
2017-Oct-11 17:00N 34°38' E 135°23'  
2017-Oct-09 09:41N 35°02' E 139°32'212.1
2017-Oct-09 09:30N 35°04' E 139°35'612.8
2017-Oct-09 09:00N 35°07' E 139°41'612.4
2017-Oct-09 08:30N 35°12' E 139°46'612.1
2017-Oct-09 07:59N 35°18' E 139°44'711.8
2017-Oct-09 07:26N 35°24' E 139°43'11 0.7
2017-Oct-08 15:58N 35°32' E 139°54'511.6
2017-Oct-08 15:30N 35°27' E 139°50'611.4
2017-Oct-08 15:00N 35°23' E 139°46'510.5
2017-Oct-08 14:30N 35°18' E 139°45'510.2
2017-Oct-08 14:00N 35°13' E 139°47'611.4
2017-Oct-08 13:30N 35°08' E 139°44'611.6
2017-Oct-08 13:00N 35°04' E 139°38'712.2
2017-Oct-08 12:28N 34°60' E 139°32'  

Dump ship's entire track history